Cushendall, United Kingdom
Current Conditions -  °F | °C
As of 5:20 PM on Tuesday 27 Jan 2015 (Local Time) from EGEC Reporting Station
Scattered Clouds Scattered Clouds  
Wind Chill: 39°   Ceiling: Unl
Heat Index: 45°   Visibility: 6mi
Dew Point: 41°   Wind: 12mph
Humidity: 87%   Direction: 220°SW
Pressure: 30"   Gusts: NA
Location:  55.08°N, 6.06°W
Report Text: EGEC 271720Z 22010KT 190V250 9999 SCT018 SCT030 07/05 Q1016
Loading
Personal Weather Stations






























Interactive Weather Map New forecast layout! Learn more

10-Day Weather Forecast

Advertisements
Track Severe Weather on mobile